IBS16VP LEMD-LEPA
Flight info
| Callsign | IBS16VP |
|---|---|
| Flight time | 0h 53m |
| Altitude | 30000 |
| Route | NANDO T257 FENXE/N0427F320 T257 LASPO/N0389F260 M871 GODOX |
| Aircraft | A320/M-SDE3FGHIRWY/LB1 |
Departure
| Time | 2026-05-07 13:55 |
|---|---|
| Airport | Adolfo Suárez Madrid–Barajas Airport (LEMD) |
Arrival
| Time | 2026-05-07 14:49 |
|---|---|
| Airport | Palma de Mallorca Airport (LEPA) |
| Time | Latitude | Longitude | Altitude | Speed | Heading |
|---|---|---|---|---|---|
| 2026-05-07 13:34 | 40.48839 | -3.58966 | 2033 ft | 0 kts | 271° |
| 2026-05-07 13:46 | 40.48839 | -3.58965 | 2022 ft | 1 kts | 271° |
| 2026-05-07 13:46 | 40.48840 | -3.58934 | 2027 ft | 4 kts | 259° |
| 2026-05-07 13:47 | 40.48848 | -3.58901 | 2022 ft | 4 kts | 236° |
| 2026-05-07 13:47 | 40.48865 | -3.58880 | 2022 ft | 4 kts | 189° |
| 2026-05-07 13:47 | 40.48872 | -3.58878 | 2022 ft | 0 kts | 179° |
| 2026-05-07 13:49 | 40.48851 | -3.58878 | 2022 ft | 5 kts | 179° |
| 2026-05-07 13:49 | 40.48804 | -3.58877 | 2022 ft | 10 kts | 179° |
| 2026-05-07 13:49 | 40.48758 | -3.58810 | 2026 ft | 14 kts | 92° |
| 2026-05-07 13:50 | 40.48759 | -3.58666 | 2022 ft | 17 kts | 89° |
| 2026-05-07 13:50 | 40.48760 | -3.58505 | 2019 ft | 20 kts | 90° |
| 2026-05-07 13:50 | 40.48760 | -3.58308 | 2012 ft | 24 kts | 89° |
| 2026-05-07 13:50 | 40.48762 | -3.58075 | 2004 ft | 27 kts | 90° |
| 2026-05-07 13:51 | 40.48763 | -3.57811 | 1994 ft | 31 kts | 89° |
| 2026-05-07 13:51 | 40.48764 | -3.57526 | 1992 ft | 31 kts | 89° |
| 2026-05-07 13:51 | 40.48766 | -3.57240 | 1986 ft | 26 kts | 90° |
| 2026-05-07 13:51 | 40.48766 | -3.56991 | 1983 ft | 28 kts | 90° |
| 2026-05-07 13:52 | 40.48768 | -3.56731 | 1976 ft | 29 kts | 89° |
| 2026-05-07 13:52 | 40.48769 | -3.56455 | 1967 ft | 31 kts | 90° |
| 2026-05-07 13:52 | 40.48769 | -3.56199 | 1961 ft | 20 kts | 86° |
| 2026-05-07 13:52 | 40.48878 | -3.56135 | 1959 ft | 20 kts | 358° |
| 2026-05-07 13:53 | 40.49022 | -3.56139 | 1959 ft | 21 kts | 359° |
| 2026-05-07 13:53 | 40.49170 | -3.56139 | 1958 ft | 22 kts | 0° |
| 2026-05-07 13:53 | 40.49325 | -3.56141 | 1959 ft | 23 kts | 360° |
| 2026-05-07 13:53 | 40.49409 | -3.56063 | 1959 ft | 15 kts | 85° |
| 2026-05-07 13:54 | 40.49448 | -3.55944 | 1963 ft | 14 kts | 46° |
| 2026-05-07 13:54 | 40.49504 | -3.55843 | 1963 ft | 13 kts | 75° |
| 2026-05-07 13:54 | 40.49477 | -3.55775 | 1965 ft | 0 kts | 141° |
| 2026-05-07 13:54 | 40.49458 | -3.55754 | 1963 ft | 20 kts | 141° |
| 2026-05-07 13:55 | 40.49136 | -3.55430 | 1958 ft | 93 kts | 142° |
| 2026-05-07 13:55 | 40.48465 | -3.54750 | 1939 ft | 148 kts | 142° |
| 2026-05-07 13:55 | 40.47556 | -3.53797 | 2130 ft | 175 kts | 140° |
| 2026-05-07 13:55 | 40.46575 | -3.52855 | 2855 ft | 176 kts | 143° |
| 2026-05-07 13:56 | 40.45575 | -3.51947 | 3477 ft | 176 kts | 144° |
| 2026-05-07 13:56 | 40.44521 | -3.50963 | 3814 ft | 197 kts | 142° |
| 2026-05-07 13:56 | 40.43376 | -3.49799 | 4102 ft | 221 kts | 142° |
| 2026-05-07 13:56 | 40.42099 | -3.48478 | 4517 ft | 246 kts | 142° |
| 2026-05-07 13:57 | 40.40693 | -3.47028 | 5060 ft | 265 kts | 143° |
| 2026-05-07 13:57 | 40.39218 | -3.45518 | 5931 ft | 272 kts | 143° |
| 2026-05-07 13:57 | 40.37717 | -3.43986 | 6835 ft | 275 kts | 143° |
| 2026-05-07 13:57 | 40.36188 | -3.42469 | 7666 ft | 278 kts | 148° |
| 2026-05-07 13:58 | 40.34513 | -3.41157 | 8534 ft | 282 kts | 151° |
| 2026-05-07 13:58 | 40.32784 | -3.39896 | 9440 ft | 286 kts | 152° |
| 2026-05-07 13:58 | 40.31055 | -3.38602 | 10290 ft | 289 kts | 146° |
| 2026-05-07 13:58 | 40.29540 | -3.36836 | 10934 ft | 301 kts | 133° |
| 2026-05-07 13:59 | 40.28171 | -3.34625 | 11176 ft | 325 kts | 130° |
| 2026-05-07 13:59 | 40.26740 | -3.32242 | 11696 ft | 336 kts | 130° |
| 2026-05-07 13:59 | 40.25295 | -3.29791 | 12406 ft | 342 kts | 130° |
| 2026-05-07 13:59 | 40.23929 | -3.27225 | 13145 ft | 346 kts | 121° |
| 2026-05-07 14:00 | 40.22975 | -3.24305 | 13811 ft | 353 kts | 109° |
| 2026-05-07 14:00 | 40.22309 | -3.21205 | 14471 ft | 356 kts | 108° |
| 2026-05-07 14:00 | 40.21627 | -3.18073 | 15109 ft | 359 kts | 108° |
| 2026-05-07 14:00 | 40.20928 | -3.14923 | 15741 ft | 362 kts | 109° |
| 2026-05-07 14:01 | 40.20220 | -3.11754 | 16365 ft | 365 kts | 109° |
| 2026-05-07 14:01 | 40.19502 | -3.08543 | 16958 ft | 369 kts | 109° |
| 2026-05-07 14:01 | 40.18783 | -3.05315 | 17557 ft | 372 kts | 109° |
| 2026-05-07 14:01 | 40.18057 | -3.02052 | 18147 ft | 375 kts | 109° |
| 2026-05-07 14:02 | 40.17325 | -2.98765 | 18705 ft | 378 kts | 109° |
| 2026-05-07 14:02 | 40.16588 | -2.95454 | 19231 ft | 381 kts | 109° |
| 2026-05-07 14:02 | 40.15844 | -2.92116 | 19750 ft | 384 kts | 109° |
| 2026-05-07 14:02 | 40.15094 | -2.88751 | 20257 ft | 387 kts | 109° |
| 2026-05-07 14:03 | 40.14346 | -2.85405 | 20746 ft | 390 kts | 109° |
| 2026-05-07 14:03 | 40.13579 | -2.81981 | 21225 ft | 393 kts | 109° |
| 2026-05-07 14:03 | 40.12806 | -2.78531 | 21688 ft | 396 kts | 109° |
| 2026-05-07 14:03 | 40.12026 | -2.75061 | 22151 ft | 400 kts | 109° |
| 2026-05-07 14:04 | 40.11236 | -2.71563 | 22584 ft | 403 kts | 109° |
| 2026-05-07 14:04 | 40.10436 | -2.68035 | 23005 ft | 406 kts | 109° |
| 2026-05-07 14:04 | 40.09634 | -2.64496 | 23418 ft | 409 kts | 109° |
| 2026-05-07 14:04 | 40.08824 | -2.60924 | 23820 ft | 412 kts | 110° |
| 2026-05-07 14:05 | 40.08283 | -2.58541 | 24066 ft | 414 kts | 110° |
| 2026-05-07 14:05 | 40.07461 | -2.54924 | 24459 ft | 417 kts | 110° |
| 2026-05-07 14:05 | 40.06636 | -2.51284 | 24843 ft | 419 kts | 110° |
| 2026-05-07 14:05 | 40.05803 | -2.47616 | 25226 ft | 422 kts | 110° |
| 2026-05-07 14:06 | 40.04965 | -2.43937 | 25587 ft | 424 kts | 110° |
| 2026-05-07 14:06 | 40.04121 | -2.40238 | 25942 ft | 427 kts | 111° |
| 2026-05-07 14:06 | 40.03273 | -2.36527 | 26312 ft | 429 kts | 111° |
| 2026-05-07 14:06 | 40.02419 | -2.32792 | 26669 ft | 430 kts | 111° |
| 2026-05-07 14:07 | 40.01560 | -2.29040 | 27017 ft | 433 kts | 111° |
| 2026-05-07 14:07 | 40.00693 | -2.25271 | 27370 ft | 435 kts | 112° |
| 2026-05-07 14:07 | 39.99818 | -2.21488 | 27706 ft | 436 kts | 112° |
| 2026-05-07 14:07 | 39.98910 | -2.17706 | 28023 ft | 436 kts | 116° |
| 2026-05-07 14:08 | 39.97699 | -2.14103 | 28344 ft | 433 kts | 122° |
| 2026-05-07 14:08 | 39.96313 | -2.10622 | 28663 ft | 432 kts | 125° |
| 2026-05-07 14:08 | 39.94821 | -2.07220 | 28985 ft | 432 kts | 127° |
| 2026-05-07 14:08 | 39.93283 | -2.03847 | 29285 ft | 433 kts | 127° |
| 2026-05-07 14:09 | 39.91745 | -2.00462 | 29573 ft | 435 kts | 127° |
| 2026-05-07 14:09 | 39.90222 | -1.97043 | 29859 ft | 437 kts | 126° |
| 2026-05-07 14:09 | 39.88727 | -1.93599 | 29963 ft | 434 kts | 126° |
| 2026-05-07 14:09 | 39.87299 | -1.90226 | 29979 ft | 418 kts | 126° |
| 2026-05-07 14:10 | 39.85919 | -1.86927 | 29979 ft | 412 kts | 126° |
| 2026-05-07 14:10 | 39.83177 | -1.80413 | 29980 ft | 409 kts | 126° |
| 2026-05-07 14:11 | 39.80418 | -1.73943 | 29980 ft | 409 kts | 126° |
| 2026-05-07 14:11 | 39.77667 | -1.67535 | 29981 ft | 408 kts | 126° |
| 2026-05-07 14:12 | 39.74894 | -1.61094 | 29979 ft | 408 kts | 126° |
| 2026-05-07 14:12 | 39.72117 | -1.54654 | 29971 ft | 408 kts | 126° |
| 2026-05-07 14:13 | 39.69346 | -1.48223 | 29965 ft | 408 kts | 126° |
| 2026-05-07 14:13 | 39.66566 | -1.41809 | 29969 ft | 408 kts | 127° |
| 2026-05-07 14:14 | 39.63780 | -1.35386 | 29964 ft | 408 kts | 126° |
| 2026-05-07 14:14 | 39.61011 | -1.28963 | 29961 ft | 408 kts | 126° |
| 2026-05-07 14:15 | 39.58233 | -1.22555 | 29957 ft | 407 kts | 127° |
| 2026-05-07 14:15 | 39.55434 | -1.16159 | 29955 ft | 408 kts | 127° |
| 2026-05-07 14:16 | 39.52639 | -1.09769 | 29952 ft | 407 kts | 127° |
| 2026-05-07 14:16 | 39.49849 | -1.03385 | 29945 ft | 407 kts | 127° |
| 2026-05-07 14:17 | 39.47055 | -0.97013 | 29950 ft | 407 kts | 127° |
| 2026-05-07 14:17 | 39.44253 | -0.90649 | 29940 ft | 407 kts | 127° |
| 2026-05-07 14:18 | 39.41455 | -0.84281 | 29938 ft | 407 kts | 127° |
| 2026-05-07 14:18 | 39.38662 | -0.77909 | 29937 ft | 407 kts | 127° |
| 2026-05-07 14:19 | 39.35854 | -0.71555 | 29938 ft | 407 kts | 127° |
| 2026-05-07 14:19 | 39.33038 | -0.65216 | 29935 ft | 406 kts | 127° |
| 2026-05-07 14:20 | 39.30240 | -0.58875 | 29934 ft | 409 kts | 123° |
| 2026-05-07 14:20 | 39.29182 | -0.55428 | 29935 ft | 418 kts | 112° |
| 2026-05-07 14:20 | 39.28625 | -0.51712 | 29930 ft | 428 kts | 102° |
| 2026-05-07 14:21 | 39.28821 | -0.43973 | 29922 ft | 437 kts | 92° |
| 2026-05-07 14:21 | 39.29250 | -0.36152 | 29921 ft | 437 kts | 92° |
| 2026-05-07 14:22 | 39.29656 | -0.28324 | 29922 ft | 437 kts | 92° |
| 2026-05-07 14:22 | 39.30052 | -0.20491 | 29924 ft | 437 kts | 92° |
| 2026-05-07 14:23 | 39.30450 | -0.12653 | 29925 ft | 438 kts | 92° |
| 2026-05-07 14:23 | 39.30847 | -0.04812 | 29927 ft | 437 kts | 92° |
| 2026-05-07 14:24 | 39.31247 | 0.03022 | 29926 ft | 437 kts | 93° |
| 2026-05-07 14:24 | 39.31635 | 0.10927 | 29946 ft | 447 kts | 94° |
| 2026-05-07 14:25 | 39.32019 | 0.18983 | 29943 ft | 450 kts | 94° |
| 2026-05-07 14:25 | 39.32408 | 0.27060 | 29943 ft | 451 kts | 94° |
| 2026-05-07 14:26 | 39.32792 | 0.35139 | 29943 ft | 451 kts | 94° |
| 2026-05-07 14:26 | 39.33170 | 0.43217 | 29238 ft | 450 kts | 93° |
| 2026-05-07 14:26 | 39.33353 | 0.47253 | 28587 ft | 450 kts | 93° |
| 2026-05-07 14:27 | 39.33534 | 0.51296 | 27938 ft | 450 kts | 92° |
| 2026-05-07 14:27 | 39.33711 | 0.55275 | 27292 ft | 449 kts | 92° |
| 2026-05-07 14:27 | 39.33892 | 0.59352 | 26633 ft | 448 kts | 92° |
| 2026-05-07 14:27 | 39.34070 | 0.63315 | 25992 ft | 447 kts | 91° |
| 2026-05-07 14:28 | 39.34251 | 0.67320 | 25341 ft | 446 kts | 91° |
| 2026-05-07 14:28 | 39.34430 | 0.71312 | 24691 ft | 444 kts | 91° |
| 2026-05-07 14:28 | 39.34607 | 0.75289 | 24040 ft | 442 kts | 91° |
| 2026-05-07 14:28 | 39.34777 | 0.79250 | 23394 ft | 441 kts | 90° |
| 2026-05-07 14:29 | 39.34945 | 0.83200 | 22738 ft | 439 kts | 90° |
| 2026-05-07 14:29 | 39.35109 | 0.87129 | 22190 ft | 435 kts | 90° |
| 2026-05-07 14:29 | 39.35271 | 0.91009 | 21683 ft | 430 kts | 90° |
| 2026-05-07 14:29 | 39.35429 | 0.94841 | 21189 ft | 425 kts | 90° |
| 2026-05-07 14:30 | 39.35587 | 0.98639 | 20688 ft | 420 kts | 90° |
| 2026-05-07 14:30 | 39.35744 | 1.02384 | 20190 ft | 415 kts | 90° |
| 2026-05-07 14:30 | 39.35899 | 1.06089 | 19689 ft | 411 kts | 90° |
| 2026-05-07 14:30 | 39.36050 | 1.09757 | 19190 ft | 406 kts | 90° |
| 2026-05-07 14:31 | 39.36197 | 1.13382 | 18689 ft | 403 kts | 90° |
| 2026-05-07 14:31 | 39.36339 | 1.16982 | 18187 ft | 399 kts | 89° |
| 2026-05-07 14:31 | 39.36476 | 1.20550 | 17687 ft | 396 kts | 89° |
| 2026-05-07 14:31 | 39.36612 | 1.24096 | 17186 ft | 393 kts | 89° |
| 2026-05-07 14:32 | 39.36745 | 1.27596 | 16712 ft | 389 kts | 89° |
| 2026-05-07 14:32 | 39.36877 | 1.31064 | 16271 ft | 384 kts | 89° |
| 2026-05-07 14:32 | 39.37007 | 1.34499 | 15816 ft | 381 kts | 89° |
| 2026-05-07 14:32 | 39.37136 | 1.37900 | 15370 ft | 377 kts | 89° |
| 2026-05-07 14:33 | 39.37296 | 1.41268 | 14918 ft | 374 kts | 84° |
| 2026-05-07 14:33 | 39.37719 | 1.44582 | 14466 ft | 371 kts | 82° |
| 2026-05-07 14:33 | 39.38157 | 1.47854 | 14018 ft | 368 kts | 82° |
| 2026-05-07 14:33 | 39.38591 | 1.51099 | 13567 ft | 365 kts | 82° |
| 2026-05-07 14:34 | 39.39019 | 1.54315 | 13116 ft | 360 kts | 81° |
| 2026-05-07 14:34 | 39.39436 | 1.57469 | 12656 ft | 350 kts | 82° |
| 2026-05-07 14:34 | 39.39836 | 1.60506 | 12211 ft | 339 kts | 81° |
| 2026-05-07 14:34 | 39.40228 | 1.63505 | 11761 ft | 338 kts | 81° |
| 2026-05-07 14:35 | 39.40613 | 1.66488 | 11310 ft | 335 kts | 81° |
| 2026-05-07 14:35 | 39.40996 | 1.69453 | 10862 ft | 333 kts | 81° |
| 2026-05-07 14:35 | 39.41375 | 1.72399 | 10406 ft | 331 kts | 81° |
| 2026-05-07 14:35 | 39.41751 | 1.75308 | 10167 ft | 322 kts | 81° |
| 2026-05-07 14:36 | 39.42111 | 1.78099 | 10130 ft | 307 kts | 81° |
| 2026-05-07 14:36 | 39.42458 | 1.80799 | 10017 ft | 302 kts | 81° |
| 2026-05-07 14:36 | 39.42794 | 1.83420 | 9919 ft | 294 kts | 81° |
| 2026-05-07 14:36 | 39.43129 | 1.86013 | 9930 ft | 291 kts | 81° |
| 2026-05-07 14:37 | 39.43465 | 1.88589 | 9929 ft | 291 kts | 81° |
| 2026-05-07 14:37 | 39.44132 | 1.93750 | 9860 ft | 290 kts | 81° |
| 2026-05-07 14:37 | 39.44456 | 1.96296 | 9621 ft | 284 kts | 81° |
| 2026-05-07 14:38 | 39.44773 | 1.98796 | 9374 ft | 278 kts | 81° |
| 2026-05-07 14:38 | 39.45084 | 2.01242 | 9123 ft | 273 kts | 81° |
| 2026-05-07 14:38 | 39.45502 | 2.03605 | 8870 ft | 268 kts | 71° |
| 2026-05-07 14:38 | 39.46102 | 2.05863 | 8619 ft | 264 kts | 71° |
| 2026-05-07 14:39 | 39.46695 | 2.08095 | 8368 ft | 261 kts | 71° |
| 2026-05-07 14:39 | 39.47286 | 2.10317 | 8117 ft | 260 kts | 72° |
| 2026-05-07 14:39 | 39.47870 | 2.12524 | 7867 ft | 259 kts | 72° |
| 2026-05-07 14:39 | 39.48448 | 2.14725 | 7616 ft | 258 kts | 72° |
| 2026-05-07 14:40 | 39.49023 | 2.16916 | 7366 ft | 256 kts | 72° |
| 2026-05-07 14:40 | 39.49595 | 2.19098 | 7115 ft | 255 kts | 72° |
| 2026-05-07 14:40 | 39.50165 | 2.21271 | 6868 ft | 253 kts | 72° |
| 2026-05-07 14:40 | 39.50730 | 2.23430 | 6612 ft | 252 kts | 72° |
| 2026-05-07 14:41 | 39.51290 | 2.25574 | 6355 ft | 251 kts | 72° |
| 2026-05-07 14:41 | 39.51849 | 2.27712 | 6107 ft | 250 kts | 72° |
| 2026-05-07 14:41 | 39.52409 | 2.29846 | 5866 ft | 249 kts | 72° |
| 2026-05-07 14:41 | 39.52961 | 2.31963 | 5611 ft | 248 kts | 72° |
| 2026-05-07 14:42 | 39.53513 | 2.34075 | 5346 ft | 246 kts | 72° |
| 2026-05-07 14:42 | 39.54055 | 2.36171 | 5017 ft | 244 kts | 75° |
| 2026-05-07 14:42 | 39.54191 | 2.38332 | 4692 ft | 241 kts | 99° |
| 2026-05-07 14:42 | 39.53629 | 2.40346 | 4365 ft | 239 kts | 122° |
| 2026-05-07 14:43 | 39.52488 | 2.41893 | 4045 ft | 239 kts | 142° |
| 2026-05-07 14:43 | 39.51139 | 2.43147 | 3729 ft | 238 kts | 142° |
| 2026-05-07 14:43 | 39.49798 | 2.44399 | 3422 ft | 239 kts | 142° |
| 2026-05-07 14:43 | 39.48470 | 2.45639 | 3047 ft | 238 kts | 142° |
| 2026-05-07 14:44 | 39.47133 | 2.46878 | 2673 ft | 236 kts | 141° |
| 2026-05-07 14:44 | 39.45935 | 2.48260 | 2305 ft | 225 kts | 121° |
| 2026-05-07 14:44 | 39.45440 | 2.50082 | 2113 ft | 210 kts | 93° |
| 2026-05-07 14:44 | 39.45651 | 2.51883 | 2043 ft | 199 kts | 68° |
| 2026-05-07 14:45 | 39.46323 | 2.53409 | 1956 ft | 193 kts | 60° |
| 2026-05-07 14:45 | 39.47026 | 2.54880 | 1876 ft | 192 kts | 60° |
| 2026-05-07 14:45 | 39.47726 | 2.56348 | 1791 ft | 191 kts | 60° |
| 2026-05-07 14:45 | 39.48421 | 2.57809 | 1709 ft | 190 kts | 60° |
| 2026-05-07 14:46 | 39.49114 | 2.59266 | 1711 ft | 190 kts | 60° |
| 2026-05-07 14:46 | 39.49774 | 2.60654 | 1727 ft | 172 kts | 60° |
| 2026-05-07 14:46 | 39.50181 | 2.61510 | 1654 ft | 165 kts | 60° |
| 2026-05-07 14:46 | 39.50767 | 2.62745 | 1492 ft | 155 kts | 60° |
| 2026-05-07 14:47 | 39.51306 | 2.63880 | 1314 ft | 143 kts | 60° |
| 2026-05-07 14:47 | 39.51989 | 2.65320 | 1058 ft | 142 kts | 60° |
| 2026-05-07 14:47 | 39.52511 | 2.66422 | 878 ft | 144 kts | 60° |
| 2026-05-07 14:47 | 39.53047 | 2.67523 | 650 ft | 144 kts | 59° |
| 2026-05-07 14:48 | 39.53405 | 2.68264 | 569 ft | 144 kts | 60° |
| 2026-05-07 14:48 | 39.53916 | 2.69366 | 388 ft | 145 kts | 60° |
| 2026-05-07 14:48 | 39.54446 | 2.70498 | 161 ft | 145 kts | 60° |
| 2026-05-07 14:48 | 39.54963 | 2.71599 | 30 ft | 135 kts | 59° |
| 2026-05-07 14:49 | 39.55360 | 2.72436 | 30 ft | 83 kts | 58° |
| 2026-05-07 14:49 | 39.55602 | 2.72947 | 30 ft | 53 kts | 58° |
| 2026-05-07 14:49 | 39.55719 | 2.73241 | 30 ft | 23 kts | 90° |
| 2026-05-07 14:49 | 39.55719 | 2.73399 | 30 ft | 17 kts | 92° |
| 2026-05-07 14:50 | 39.55636 | 2.73499 | 30 ft | 17 kts | 148° |
| 2026-05-07 14:50 | 39.55527 | 2.73576 | 30 ft | 19 kts | 148° |
| 2026-05-07 14:50 | 39.55412 | 2.73668 | 30 ft | 20 kts | 148° |
| 2026-05-07 14:50 | 39.55286 | 2.73768 | 30 ft | 22 kts | 149° |
| 2026-05-07 14:51 | 39.55149 | 2.73874 | 30 ft | 24 kts | 148° |
| 2026-05-07 14:51 | 39.55004 | 2.73990 | 30 ft | 25 kts | 148° |
| 2026-05-07 14:51 | 39.54856 | 2.74107 | 30 ft | 20 kts | 149° |
| 2026-05-07 14:51 | 39.54759 | 2.74060 | 30 ft | 16 kts | 238° |
| 2026-05-07 14:52 | 39.54706 | 2.73948 | 30 ft | 14 kts | 238° |
| 2026-05-07 14:52 | 39.54658 | 2.73848 | 30 ft | 12 kts | 238° |
| 2026-05-07 14:52 | 39.54614 | 2.73755 | 30 ft | 12 kts | 238° |
| 2026-05-07 14:52 | 39.54599 | 2.73644 | 30 ft | 16 kts | 301° |
| 2026-05-07 14:53 | 39.54652 | 2.73535 | 30 ft | 9 kts | 324° |
| 2026-05-07 14:53 | 39.54657 | 2.73474 | 30 ft | 7 kts | 254° |
| 2026-05-07 14:53 | 39.54650 | 2.73442 | 30 ft | 0 kts | 254° |